createdAt,value
2022-11-02T00:01:18.742Z,5.87
2022-11-02T00:03:45.676Z,4.70
2022-11-02T00:06:13.722Z,4.70
2022-11-02T00:08:40.853Z,4.07
2022-11-02T00:11:07.773Z,4.07
2022-11-02T00:13:34.865Z,4.27
2022-11-02T00:16:04.654Z,4.10
2022-11-02T00:18:32.684Z,3.87
2022-11-02T00:20:59.760Z,5.00
2022-11-02T00:23:26.680Z,4.23
2022-11-02T00:25:55.343Z,2.37
2022-11-02T00:28:22.408Z,3.93
2022-11-02T00:30:49.336Z,3.37
2022-11-02T00:33:17.593Z,3.23
2022-11-02T00:35:45.761Z,4.10
2022-11-02T00:38:12.839Z,4.93
2022-11-02T00:40:39.810Z,5.07
2022-11-02T00:43:06.962Z,3.23
2022-11-02T00:45:34.212Z,3.77
2022-11-02T00:48:01.763Z,3.53
2022-11-02T00:50:31.511Z,2.87
2022-11-02T00:52:58.479Z,3.87
2022-11-02T00:55:25.511Z,3.57
2022-11-02T00:57:56.062Z,3.67
2022-11-02T01:00:22.964Z,4.17
2022-11-02T01:02:50.005Z,4.13
2022-11-02T01:05:17.231Z,3.37
2022-11-02T01:07:45.488Z,2.30
2022-11-02T01:10:12.521Z,6.03
2022-11-02T01:12:40.651Z,4.63
2022-11-02T01:15:10.600Z,2.93
2022-11-02T01:17:38.560Z,3.10
2022-11-02T01:20:06.624Z,4.33
2022-11-02T01:22:34.394Z,3.87
2022-11-02T01:25:03.128Z,2.97
2022-11-02T01:27:30.172Z,3.07
2022-11-02T01:29:57.082Z,3.57
2022-11-02T01:32:24.038Z,4.73
2022-11-02T01:34:50.919Z,3.17
2022-11-02T01:37:17.851Z,4.30
2022-11-02T01:39:44.737Z,4.87
2022-11-02T01:42:20.583Z,3.93
2022-11-02T01:44:47.562Z,3.43
2022-11-02T01:47:19.556Z,3.97
2022-11-02T01:49:49.463Z,5.47
2022-11-02T01:52:20.068Z,3.77
2022-11-02T01:54:52.008Z,4.73
2022-11-02T01:57:22.186Z,4.50
2022-11-02T01:59:53.064Z,4.67
2022-11-02T02:02:22.469Z,3.77
2022-11-02T02:04:53.680Z,3.80
2022-11-02T02:07:24.232Z,3.40
2022-11-02T02:09:52.774Z,4.60
2022-11-02T02:12:21.765Z,2.50
2022-11-02T02:14:49.306Z,4.20
2022-11-02T02:17:26.901Z,2.70
2022-11-02T02:20:02.146Z,3.33
2022-11-02T02:23:02.803Z,2.97
2022-11-02T02:25:51.600Z,4.57
2022-11-02T02:28:30.180Z,4.10
2022-11-02T02:31:01.876Z,5.27
2022-11-02T02:33:32.208Z,3.80
2022-11-02T02:36:04.162Z,3.97
2022-11-02T02:38:36.008Z,4.03
2022-11-02T02:41:09.821Z,3.93
2022-11-02T02:43:42.858Z,3.17
2022-11-02T02:46:15.609Z,4.80
2022-11-02T02:48:43.699Z,4.33
2022-11-02T02:51:16.298Z,5.10
2022-11-02T02:53:47.266Z,3.67
2022-11-02T02:56:20.240Z,4.47
2022-11-02T02:58:52.773Z,3.93
2022-11-02T03:01:20.268Z,3.03
2022-11-02T03:03:47.568Z,4.00
2022-11-02T03:06:19.952Z,2.37
2022-11-02T03:09:02.184Z,4.20
2022-11-02T03:11:31.350Z,3.60
2022-11-02T03:14:08.223Z,3.27
2022-11-02T03:16:48.133Z,2.50
2022-11-02T03:19:21.896Z,4.67
2022-11-02T03:21:55.154Z,3.33
2022-11-02T03:24:28.074Z,4.30
2022-11-02T03:27:06.844Z,2.90
2022-11-02T03:29:40.840Z,2.67
2022-11-02T03:32:13.909Z,3.70
2022-11-02T03:34:44.723Z,2.90
2022-11-02T03:37:16.142Z,3.40
2022-11-02T03:39:48.329Z,4.70
2022-11-02T03:42:20.824Z,3.27
2022-11-02T03:44:56.853Z,4.23
2022-11-02T03:47:26.051Z,4.33
2022-11-02T03:49:55.811Z,4.20
2022-11-02T03:52:28.481Z,3.70
2022-11-02T03:55:02.589Z,3.10
2022-11-02T03:57:35.224Z,5.10
2022-11-02T04:00:12.863Z,5.63
2022-11-02T04:02:47.775Z,3.80
2022-11-02T04:05:15.287Z,4.50
2022-11-02T04:08:07.290Z,5.07
2022-11-02T04:10:34.764Z,3.20
2022-11-02T04:13:20.140Z,3.13
2022-11-02T04:15:48.542Z,3.07
2022-11-02T04:18:34.088Z,2.60
2022-11-02T04:21:01.097Z,3.13
2022-11-02T04:23:46.469Z,3.63
2022-11-02T04:26:13.403Z,6.30
2022-11-02T04:28:44.202Z,4.87
2022-11-02T04:31:13.122Z,4.57
2022-11-02T04:33:41.352Z,4.67
2022-11-02T04:36:14.424Z,4.50
2022-11-02T04:38:41.738Z,4.37
2022-11-02T04:41:47.429Z,5.10
2022-11-02T04:44:29.033Z,5.27
2022-11-02T04:47:11.636Z,3.93
2022-11-02T04:49:38.541Z,6.00
2022-11-02T04:52:09.841Z,5.57
2022-11-02T04:54:39.711Z,4.83
2022-11-02T04:57:07.077Z,3.37
2022-11-02T04:59:34.286Z,5.53
2022-11-02T05:02:01.515Z,4.97
2022-11-02T05:04:30.216Z,3.73
2022-11-02T05:07:01.485Z,2.90
2022-11-02T05:09:31.077Z,5.03
2022-11-02T05:11:58.278Z,3.27
2022-11-02T05:14:25.571Z,6.10
2022-11-02T05:16:52.819Z,4.50
2022-11-02T05:19:19.749Z,4.10
2022-11-02T05:21:48.670Z,4.47
2022-11-02T05:24:15.776Z,4.13
2022-11-02T05:26:43.003Z,4.17
2022-11-02T05:29:10.150Z,4.20
2022-11-02T05:31:37.506Z,4.23
2022-11-02T05:34:04.416Z,4.30
2022-11-02T05:36:31.288Z,4.97
2022-11-02T05:39:00.151Z,6.20
2022-11-02T05:41:27.629Z,4.37
2022-11-02T05:43:56.206Z,4.47
2022-11-02T05:46:24.804Z,3.53
2022-11-02T05:48:51.862Z,4.00
2022-11-02T05:51:18.706Z,3.80
2022-11-02T05:53:45.510Z,4.33
2022-11-02T05:56:14.567Z,5.90
2022-11-02T05:58:41.532Z,5.73
2022-11-02T06:01:10.744Z,3.80
2022-11-02T06:03:37.960Z,3.37
2022-11-02T06:06:06.829Z,4.63
2022-11-02T06:08:34.750Z,3.73
2022-11-02T06:11:04.435Z,3.87
2022-11-02T06:13:32.922Z,5.33
2022-11-02T06:16:00.030Z,3.33
2022-11-02T06:18:26.987Z,5.03
2022-11-02T06:20:53.933Z,3.83
2022-11-02T06:23:20.855Z,3.93
2022-11-02T06:25:51.750Z,6.87
2022-11-02T06:28:18.988Z,4.20
2022-11-02T06:30:47.849Z,3.40
2022-11-02T06:33:14.952Z,4.57
2022-11-02T06:35:44.812Z,5.00
2022-11-02T06:38:11.796Z,4.13
2022-11-02T06:40:38.782Z,5.27
2022-11-02T06:43:21.557Z,4.53
2022-11-02T06:45:50.327Z,4.90
2022-11-02T06:48:17.495Z,4.80
2022-11-02T06:50:44.359Z,4.50
2022-11-02T06:53:11.696Z,6.40
2022-11-02T06:55:38.759Z,5.50
2022-11-02T06:58:05.713Z,4.50
2022-11-02T07:00:32.727Z,3.80
2022-11-02T07:03:02.380Z,4.80
2022-11-02T07:05:30.154Z,5.90
2022-11-02T07:07:57.278Z,3.80
2022-11-02T07:10:24.784Z,5.33
2022-11-02T07:12:55.458Z,4.07
2022-11-02T07:15:24.269Z,4.90
2022-11-02T07:17:51.904Z,6.70
2022-11-02T07:20:20.158Z,3.47
2022-11-02T07:22:52.664Z,5.63
2022-11-02T07:25:19.575Z,2.80
2022-11-02T07:27:46.564Z,7.17
2022-11-02T07:30:13.960Z,6.20
2022-11-02T07:32:41.556Z,3.83
2022-11-02T07:35:09.957Z,6.00
2022-11-02T07:37:38.327Z,4.67
2022-11-02T07:40:07.717Z,4.47
2022-11-02T07:42:34.603Z,3.70
2022-11-02T07:45:04.978Z,4.80
2022-11-02T07:47:33.176Z,3.70
2022-11-02T07:50:00.776Z,5.37
2022-11-02T07:52:27.653Z,7.40
2022-11-02T07:54:55.884Z,6.77
2022-11-02T07:57:22.775Z,4.30
2022-11-02T07:59:49.691Z,3.97
2022-11-02T08:02:16.702Z,5.07
2022-11-02T08:04:45.010Z,4.50
2022-11-02T08:07:12.636Z,5.00
2022-11-02T08:09:39.607Z,5.17
2022-11-02T08:12:08.038Z,5.53
2022-11-02T08:14:34.939Z,4.47
2022-11-02T08:17:01.812Z,4.87
2022-11-02T08:19:28.729Z,5.37
2022-11-02T08:21:56.181Z,5.00
2022-11-02T08:24:23.098Z,5.97
2022-11-02T08:26:53.861Z,3.87
2022-11-02T08:29:23.380Z,3.37
2022-11-02T08:31:50.506Z,5.47
2022-11-02T08:34:17.352Z,2.93
2022-11-02T08:36:44.258Z,5.63
2022-11-02T08:39:16.043Z,3.57
2022-11-02T08:41:45.522Z,4.10
2022-11-02T08:44:12.361Z,5.80
2022-11-02T08:46:40.681Z,3.20
2022-11-02T08:49:07.598Z,2.97
2022-11-02T08:51:34.410Z,4.27
2022-11-02T08:54:01.324Z,6.10
2022-11-02T08:56:28.499Z,4.47
2022-11-02T08:58:55.446Z,4.70
2022-11-02T09:01:22.395Z,5.83
2022-11-02T09:03:50.681Z,3.37
2022-11-02T09:06:17.551Z,2.40
2022-11-02T09:08:44.363Z,3.37
2022-11-02T09:14:04.659Z,5.70
2022-11-02T09:16:31.798Z,3.77
2022-11-02T09:19:00.105Z,4.37
2022-11-02T09:21:27.008Z,3.67
2022-11-02T09:23:53.883Z,3.43
2022-11-02T09:26:20.765Z,4.93
2022-11-02T09:28:47.587Z,5.00
2022-11-02T09:31:14.493Z,2.80
2022-11-02T09:33:41.477Z,3.00
2022-11-02T09:36:10.060Z,5.47
2022-11-02T09:38:36.984Z,6.03
2022-11-02T09:41:12.050Z,3.17
2022-11-02T09:43:46.261Z,4.93
2022-11-02T09:46:19.149Z,4.43
2022-11-02T09:48:50.981Z,4.67
2022-11-02T09:51:22.110Z,3.97
2022-11-02T09:53:55.797Z,4.27
2022-11-02T09:56:23.110Z,3.70
2022-11-02T09:58:56.209Z,5.37
2022-11-02T10:01:40.459Z,4.83
2022-11-02T10:04:32.064Z,4.67
2022-11-02T10:07:06.863Z,4.63
2022-11-02T10:09:45.170Z,4.57
2022-11-02T10:12:14.428Z,3.90
2022-11-02T10:14:55.065Z,5.43
2022-11-02T10:17:25.676Z,5.63
2022-11-02T10:19:56.200Z,4.50
2022-11-02T10:22:27.855Z,4.13
2022-11-02T10:24:58.077Z,6.47
2022-11-02T10:27:27.234Z,5.10
2022-11-02T10:29:59.272Z,5.03
2022-11-02T10:32:26.204Z,5.50
2022-11-02T10:35:04.312Z,3.73
2022-11-02T10:37:55.921Z,3.20
2022-11-02T10:40:39.973Z,4.97
2022-11-02T10:43:19.311Z,6.17
2022-11-02T10:46:15.356Z,5.47
2022-11-02T10:48:52.137Z,5.43
2022-11-02T10:51:21.345Z,6.90
2022-11-02T10:53:51.825Z,5.33
2022-11-02T10:56:21.653Z,4.13
2022-11-02T10:58:55.893Z,3.30
2022-11-02T11:01:22.910Z,4.37
2022-11-02T11:03:55.662Z,4.37
2022-11-02T11:06:23.966Z,3.47
2022-11-02T11:08:58.296Z,4.57
2022-11-02T11:11:28.257Z,6.10
2022-11-02T11:16:49.113Z,4.83
2022-11-02T11:19:39.404Z,5.73
2022-11-02T11:22:25.562Z,4.63
2022-11-02T11:24:54.219Z,4.63
2022-11-02T11:27:22.107Z,5.07
2022-11-02T11:29:55.307Z,6.33
2022-11-02T11:32:29.889Z,5.40
2022-11-02T11:35:00.209Z,5.33
2022-11-02T11:37:27.479Z,4.73
2022-11-02T11:40:00.721Z,6.13
2022-11-02T11:42:31.303Z,4.43
2022-11-02T11:45:01.569Z,4.63
2022-11-02T11:47:31.008Z,3.80
2022-11-02T11:50:08.534Z,7.27
2022-11-02T11:52:39.932Z,4.03
2022-11-02T11:55:23.072Z,4.17
2022-11-02T11:58:05.984Z,4.80
2022-11-02T12:00:34.439Z,4.50
2022-11-02T12:03:06.614Z,4.93
2022-11-02T12:05:46.238Z,5.57
2022-11-02T12:08:35.780Z,3.87
2022-11-02T12:11:21.160Z,3.53
2022-11-02T12:14:02.995Z,5.40
2022-11-02T12:16:40.543Z,4.90
2022-11-02T12:19:18.256Z,3.93
2022-11-02T12:21:59.228Z,4.47
2022-11-02T12:24:44.265Z,3.67
2022-11-02T12:27:24.249Z,4.50
2022-11-02T12:30:15.131Z,4.43
2022-11-02T12:33:05.404Z,4.87
2022-11-02T12:35:58.093Z,5.47
2022-11-02T12:38:46.810Z,3.23
2022-11-02T12:41:17.056Z,4.17
2022-11-02T12:43:47.867Z,3.03
2022-11-02T12:46:30.709Z,5.63
2022-11-02T12:49:19.849Z,1.97
2022-11-02T12:51:54.000Z,3.37
2022-11-02T12:54:24.384Z,3.17
2022-11-02T12:56:52.683Z,4.80
2022-11-02T12:59:23.473Z,3.30
2022-11-02T13:01:54.859Z,3.10
2022-11-02T13:04:29.527Z,3.70
2022-11-02T13:07:01.690Z,3.67
2022-11-02T13:09:32.828Z,4.27
2022-11-02T13:12:02.843Z,2.10
2022-11-02T13:14:39.631Z,4.33
2022-11-02T13:17:15.659Z,5.00
2022-11-02T13:19:48.276Z,3.60
2022-11-02T13:22:18.143Z,3.67
2022-11-02T13:24:48.332Z,5.30
2022-11-02T13:27:36.440Z,3.63
2022-11-02T13:30:13.180Z,3.87
2022-11-02T13:32:43.810Z,4.50
2022-11-02T13:35:18.834Z,5.90
2022-11-02T13:37:48.314Z,4.07
2022-11-02T13:40:21.735Z,3.30
2022-11-02T13:43:19.165Z,2.43
2022-11-02T13:46:12.155Z,3.53
2022-11-02T13:48:48.573Z,4.13
2022-11-02T13:51:24.691Z,4.00
2022-11-02T13:53:56.252Z,2.97
2022-11-02T13:56:25.646Z,4.90
2022-11-02T13:58:59.776Z,4.50
2022-11-02T14:01:31.643Z,3.17
2022-11-02T14:04:03.924Z,4.87
2022-11-02T14:06:33.399Z,4.73
2022-11-02T14:09:03.567Z,3.00
2022-11-02T14:11:44.850Z,3.70
2022-11-02T14:14:21.514Z,4.13
2022-11-02T14:17:12.963Z,4.77
2022-11-02T14:19:54.638Z,2.97
2022-11-02T14:22:22.327Z,3.43
2022-11-02T14:25:16.982Z,3.07
2022-11-02T14:27:44.214Z,6.13
2022-11-02T14:30:44.113Z,5.63
2022-11-02T14:33:37.731Z,4.70
2022-11-02T14:36:09.760Z,5.00
2022-11-02T14:38:51.059Z,6.53
2022-11-02T14:41:46.941Z,5.23
2022-11-02T14:44:37.016Z,3.27
2022-11-02T14:47:07.840Z,3.30
2022-11-02T14:49:40.090Z,5.03
2022-11-02T14:52:17.906Z,4.33
2022-11-02T14:54:49.374Z,3.40
2022-11-02T14:57:23.426Z,3.53
2022-11-02T14:59:52.240Z,4.23
2022-11-02T15:02:23.747Z,4.43
2022-11-02T15:04:55.839Z,4.07
2022-11-02T15:07:30.019Z,5.13
2022-11-02T15:09:59.040Z,3.27
2022-11-02T15:12:38.830Z,4.47
2022-11-02T15:15:27.981Z,3.50
2022-11-02T15:18:00.992Z,3.77
2022-11-02T15:20:31.620Z,5.27
2022-11-02T15:23:24.005Z,4.27
2022-11-02T15:25:57.675Z,2.63
2022-11-02T15:28:28.245Z,2.73
2022-11-02T15:30:58.910Z,3.53
2022-11-02T15:33:36.255Z,4.10
2022-11-02T15:36:07.064Z,3.97
2022-11-02T15:38:39.704Z,3.27
2022-11-02T15:41:18.670Z,4.60
2022-11-02T15:44:18.647Z,4.53
2022-11-02T15:46:58.299Z,5.90
2022-11-02T15:49:50.032Z,7.10
2022-11-02T15:53:01.618Z,5.97
2022-11-02T15:55:39.632Z,9.60
2022-11-02T15:58:18.878Z,9.90
2022-11-02T16:01:05.275Z,10.53
2022-11-02T16:03:33.381Z,10.43
2022-11-02T16:06:04.830Z,7.97
2022-11-02T16:08:37.849Z,7.60
2022-11-02T16:11:06.238Z,12.60
2022-11-02T16:13:55.584Z,10.83
2022-11-02T16:16:24.959Z,7.90
2022-11-02T16:18:53.890Z,11.47
2022-11-02T16:21:21.817Z,12.87
2022-11-02T16:23:55.547Z,8.70
2022-11-02T16:26:25.176Z,11.03
2022-11-02T16:28:54.266Z,9.30
2022-11-02T16:31:23.530Z,9.57
2022-11-02T16:33:52.148Z,8.27
2022-11-02T16:36:21.514Z,11.83
2022-11-02T16:38:56.333Z,6.83
2022-11-02T16:41:25.926Z,8.60
2022-11-02T16:43:53.333Z,6.77
2022-11-02T16:46:29.604Z,8.60
2022-11-02T16:49:18.715Z,8.13
2022-11-02T16:51:50.644Z,8.23
2022-11-02T16:54:40.256Z,8.77
2022-11-02T16:57:14.748Z,8.17
2022-11-02T16:59:51.438Z,9.20
2022-11-02T17:02:19.489Z,13.27
2022-11-02T17:04:48.694Z,11.97
2022-11-02T17:07:22.235Z,16.07
2022-11-02T17:09:54.032Z,12.03
2022-11-02T17:12:28.862Z,8.77
2022-11-02T17:14:56.693Z,9.53
2022-11-02T17:17:38.685Z,10.17
2022-11-02T17:20:15.254Z,8.80
2022-11-02T17:22:51.197Z,11.07
2022-11-02T17:25:22.726Z,7.10
2022-11-02T17:27:50.510Z,8.17
2022-11-02T17:30:43.277Z,9.43
2022-11-02T17:33:18.528Z,10.30
2022-11-02T17:35:46.983Z,9.37
2022-11-02T17:38:14.213Z,8.70
2022-11-02T17:40:42.581Z,10.10
2022-11-02T17:43:09.399Z,10.27
2022-11-02T17:45:38.191Z,12.07
2022-11-02T17:48:06.894Z,9.33
2022-11-02T17:50:35.743Z,9.43
2022-11-02T17:53:03.610Z,13.67
2022-11-02T17:55:31.868Z,12.53
2022-11-02T17:58:00.457Z,14.00
2022-11-02T18:00:28.077Z,15.33
2022-11-02T18:02:56.634Z,17.20
2022-11-02T18:05:26.031Z,12.20
2022-11-02T18:07:53.800Z,15.20
2022-11-02T18:10:22.618Z,12.23
2022-11-02T18:12:49.728Z,14.67
2022-11-02T18:15:20.665Z,13.30
2022-11-02T18:17:47.643Z,14.90
2022-11-02T18:20:15.552Z,14.83
2022-11-02T18:22:42.894Z,13.40
2022-11-02T18:25:11.149Z,12.57
2022-11-02T18:27:38.172Z,13.40
2022-11-02T18:30:07.306Z,11.87
2022-11-02T18:32:37.717Z,15.43
2022-11-02T18:35:05.795Z,15.47
2022-11-02T18:37:32.831Z,14.50
2022-11-02T18:40:00.028Z,14.27
2022-11-02T18:42:26.962Z,13.53
2022-11-02T18:44:53.853Z,14.30
2022-11-02T18:47:20.727Z,15.10
2022-11-02T18:49:49.032Z,15.93
2022-11-02T18:52:19.813Z,13.30
2022-11-02T18:54:49.432Z,15.43
2022-11-02T18:57:16.319Z,14.80
2022-11-02T18:59:43.292Z,14.43
2022-11-02T19:02:11.052Z,14.17
2022-11-02T19:04:38.300Z,15.03
2022-11-02T19:07:25.337Z,15.30
2022-11-02T19:09:52.214Z,12.63
2022-11-02T19:12:21.910Z,11.47
2022-11-02T19:14:51.336Z,13.50
2022-11-02T19:17:19.111Z,15.87
2022-11-02T19:19:46.631Z,13.03
2022-11-02T19:22:16.034Z,11.70
2022-11-02T19:24:43.137Z,12.90
2022-11-02T19:27:13.717Z,12.50
2022-11-02T19:29:41.155Z,11.57
2022-11-02T19:32:08.333Z,11.00
2022-11-02T19:34:36.751Z,12.70
2022-11-02T19:37:04.001Z,12.43
2022-11-02T19:39:32.506Z,11.07
2022-11-02T19:41:59.636Z,9.40
2022-11-02T19:44:26.572Z,10.83
2022-11-02T19:46:53.416Z,11.73
2022-11-02T19:49:20.291Z,10.20
2022-11-02T19:51:47.552Z,12.23
2022-11-02T19:54:14.550Z,12.47
2022-11-02T19:56:42.771Z,15.17
2022-11-02T19:59:09.570Z,9.73
2022-11-02T20:01:38.644Z,8.57
2022-11-02T20:04:06.484Z,11.33
2022-11-02T20:06:35.110Z,13.70
2022-11-02T20:09:04.370Z,11.30
2022-11-02T20:11:31.749Z,8.87
2022-11-02T20:14:01.561Z,9.80
2022-11-02T20:16:28.908Z,10.27
2022-11-02T20:18:56.254Z,10.87
2022-11-02T20:21:30.082Z,9.53
2022-11-02T20:23:58.463Z,10.13
2022-11-02T20:26:27.394Z,8.77
2022-11-02T20:28:55.309Z,11.33
2022-11-02T20:31:26.041Z,11.30
2022-11-02T20:33:53.363Z,9.43
2022-11-02T20:36:20.327Z,12.93
2022-11-02T20:38:47.359Z,8.73
2022-11-02T20:41:16.321Z,10.40
2022-11-02T20:43:46.052Z,10.03
2022-11-02T20:49:20.698Z,8.37
2022-11-02T20:51:49.854Z,11.50
2022-11-02T20:54:18.668Z,10.00
2022-11-02T20:56:46.052Z,9.07
2022-11-02T20:59:12.933Z,9.87
2022-11-02T21:01:39.922Z,9.73
2022-11-02T21:04:08.345Z,9.80
2022-11-02T21:06:35.192Z,7.03
2022-11-02T21:09:08.986Z,10.27
2022-11-02T21:11:56.335Z,8.13
2022-11-02T21:14:23.486Z,8.20
2022-11-02T21:16:50.320Z,7.87
2022-11-02T21:19:18.591Z,9.37
2022-11-02T21:21:45.490Z,12.27
2022-11-02T21:24:12.554Z,10.30
2022-11-02T21:26:39.486Z,8.60
2022-11-02T21:29:06.439Z,7.07
2022-11-02T21:31:33.478Z,7.67
2022-11-02T21:34:00.526Z,8.70
2022-11-02T21:36:28.755Z,7.37
2022-11-02T21:38:56.005Z,10.33
2022-11-02T21:41:28.954Z,10.50
2022-11-02T21:43:56.841Z,11.10
2022-11-02T21:46:27.559Z,9.47
2022-11-02T21:48:55.654Z,8.37
2022-11-02T21:51:23.045Z,7.20
2022-11-02T21:53:51.873Z,8.53
2022-11-02T21:56:21.229Z,11.90
2022-11-02T21:58:48.758Z,6.40
2022-11-02T22:01:36.355Z,9.13
2022-11-02T22:04:03.855Z,10.23
2022-11-02T22:06:31.849Z,8.40
2022-11-02T22:09:00.752Z,10.07
2022-11-02T22:11:28.316Z,8.40
2022-11-02T22:13:56.817Z,9.53
2022-11-02T22:16:25.780Z,9.07
2022-11-02T22:18:54.921Z,8.90
2022-11-02T22:21:22.307Z,10.37
2022-11-02T22:23:49.859Z,9.67
2022-11-02T22:26:20.293Z,9.70
2022-11-02T22:28:48.057Z,9.77
2022-11-02T22:31:16.951Z,9.27
2022-11-02T22:33:45.304Z,9.87
2022-11-02T22:36:14.003Z,10.93
2022-11-02T22:38:56.287Z,9.63
2022-11-02T22:41:26.732Z,9.30
2022-11-02T22:43:56.262Z,8.80
2022-11-02T22:46:24.499Z,9.77
2022-11-02T22:48:52.447Z,13.20
2022-11-02T22:51:20.928Z,13.10
2022-11-02T22:53:48.409Z,11.27
2022-11-02T22:56:17.045Z,13.10
2022-11-02T22:58:46.563Z,12.47
2022-11-02T23:01:16.477Z,10.67
2022-11-02T23:03:43.693Z,10.70
2022-11-02T23:06:10.980Z,11.07
2022-11-02T23:08:39.869Z,7.33
2022-11-02T23:11:24.254Z,8.57
2022-11-02T23:13:55.846Z,8.90
2022-11-02T23:16:25.112Z,8.10
2022-11-02T23:19:20.335Z,7.63
2022-11-02T23:22:11.117Z,8.30
2022-11-02T23:24:56.944Z,6.07
2022-11-02T23:27:23.886Z,7.67
2022-11-02T23:30:10.821Z,7.87
2022-11-02T23:32:38.300Z,5.70
2022-11-02T23:35:24.554Z,6.27
2022-11-02T23:38:02.317Z,6.50
2022-11-02T23:40:29.382Z,9.13
2022-11-02T23:42:56.437Z,7.97
2022-11-02T23:45:24.712Z,7.80
2022-11-02T23:47:57.982Z,7.83
2022-11-02T23:50:47.145Z,6.50
2022-11-02T23:53:35.106Z,8.07
2022-11-02T23:56:20.817Z,7.57
2022-11-02T23:58:47.755Z,8.80
